sensor_id;sensor_type;location;lat;lon;timestamp;P1;durP1;ratioP1;P2;durP2;ratioP2
22357;SDS011;11346;50.150;8.150;2023-04-19T00:01:24;4.27;;;3.77;;
22357;SDS011;11346;50.150;8.150;2023-04-19T00:03:52;4.93;;;3.90;;
22357;SDS011;11346;50.150;8.150;2023-04-19T00:06:19;6.23;;;3.50;;
22357;SDS011;11346;50.150;8.150;2023-04-19T00:08:47;5.47;;;4.07;;
22357;SDS011;11346;50.150;8.150;2023-04-19T00:11:15;4.90;;;3.77;;
22357;SDS011;11346;50.150;8.150;2023-04-19T00:13:43;4.10;;;3.70;;
22357;SDS011;11346;50.150;8.150;2023-04-19T00:16:10;4.93;;;3.77;;
22357;SDS011;11346;50.150;8.150;2023-04-19T00:18:37;4.33;;;3.40;;
22357;SDS011;11346;50.150;8.150;2023-04-19T00:21:04;6.77;;;3.73;;
22357;SDS011;11346;50.150;8.150;2023-04-19T00:23:32;4.67;;;3.77;;
22357;SDS011;11346;50.150;8.150;2023-04-19T00:26:01;5.47;;;4.37;;
22357;SDS011;11346;50.150;8.150;2023-04-19T00:28:29;4.90;;;4.13;;
22357;SDS011;11346;50.150;8.150;2023-04-19T00:30:57;5.50;;;4.23;;
22357;SDS011;11346;50.150;8.150;2023-04-19T00:33:24;5.77;;;3.83;;
22357;SDS011;11346;50.150;8.150;2023-04-19T00:35:51;7.43;;;4.13;;
22357;SDS011;11346;50.150;8.150;2023-04-19T00:38:18;5.13;;;4.27;;
22357;SDS011;11346;50.150;8.150;2023-04-19T00:40:45;5.23;;;4.20;;
22357;SDS011;11346;50.150;8.150;2023-04-19T00:43:15;5.13;;;4.17;;
22357;SDS011;11346;50.150;8.150;2023-04-19T00:45:44;4.90;;;4.27;;
22357;SDS011;11346;50.150;8.150;2023-04-19T00:48:11;4.87;;;4.27;;
22357;SDS011;11346;50.150;8.150;2023-04-19T00:50:39;5.43;;;4.07;;
22357;SDS011;11346;50.150;8.150;2023-04-19T00:53:06;5.33;;;3.97;;
22357;SDS011;11346;50.150;8.150;2023-04-19T00:55:33;5.10;;;4.60;;
22357;SDS011;11346;50.150;8.150;2023-04-19T00:58:00;5.30;;;4.67;;
22357;SDS011;11346;50.150;8.150;2023-04-19T01:00:28;5.53;;;4.40;;
22357;SDS011;11346;50.150;8.150;2023-04-19T01:02:56;6.17;;;5.17;;
22357;SDS011;11346;50.150;8.150;2023-04-19T01:05:24;5.10;;;4.10;;
22357;SDS011;11346;50.150;8.150;2023-04-19T01:07:53;6.30;;;4.43;;
22357;SDS011;11346;50.150;8.150;2023-04-19T01:10:21;6.03;;;4.80;;
22357;SDS011;11346;50.150;8.150;2023-04-19T01:12:48;5.33;;;4.70;;
22357;SDS011;11346;50.150;8.150;2023-04-19T01:15:15;6.63;;;5.10;;
22357;SDS011;11346;50.150;8.150;2023-04-19T01:17:42;6.70;;;5.00;;
22357;SDS011;11346;50.150;8.150;2023-04-19T01:20:11;7.20;;;5.40;;
22357;SDS011;11346;50.150;8.150;2023-04-19T01:22:39;6.50;;;5.37;;
22357;SDS011;11346;50.150;8.150;2023-04-19T01:25:07;7.60;;;5.37;;
22357;SDS011;11346;50.150;8.150;2023-04-19T01:27:34;7.13;;;5.77;;
22357;SDS011;11346;50.150;8.150;2023-04-19T01:30:01;10.57;;;7.07;;
22357;SDS011;11346;50.150;8.150;2023-04-19T01:32:28;9.07;;;6.20;;
22357;SDS011;11346;50.150;8.150;2023-04-19T01:34:58;7.67;;;6.03;;
22357;SDS011;11346;50.150;8.150;2023-04-19T01:37:25;6.73;;;5.50;;
22357;SDS011;11346;50.150;8.150;2023-04-19T01:39:55;8.60;;;6.13;;
22357;SDS011;11346;50.150;8.150;2023-04-19T01:42:23;7.70;;;5.70;;
22357;SDS011;11346;50.150;8.150;2023-04-19T01:44:51;8.77;;;6.03;;
22357;SDS011;11346;50.150;8.150;2023-04-19T01:47:18;6.73;;;4.53;;
22357;SDS011;11346;50.150;8.150;2023-04-19T01:49:45;9.13;;;6.53;;
22357;SDS011;11346;50.150;8.150;2023-04-19T01:52:12;10.80;;;7.27;;
22357;SDS011;11346;50.150;8.150;2023-04-19T01:54:39;9.17;;;6.73;;
22357;SDS011;11346;50.150;8.150;2023-04-19T01:57:08;9.43;;;7.17;;
22357;SDS011;11346;50.150;8.150;2023-04-19T01:59:35;11.97;;;8.33;;
22357;SDS011;11346;50.150;8.150;2023-04-19T02:02:03;13.60;;;8.63;;
22357;SDS011;11346;50.150;8.150;2023-04-19T02:04:32;16.03;;;8.93;;
22357;SDS011;11346;50.150;8.150;2023-04-19T02:06:59;11.83;;;8.73;;
22357;SDS011;11346;50.150;8.150;2023-04-19T02:09:26;11.57;;;8.13;;
22357;SDS011;11346;50.150;8.150;2023-04-19T02:11:54;12.30;;;8.20;;
22357;SDS011;11346;50.150;8.150;2023-04-19T02:14:23;12.13;;;8.10;;
22357;SDS011;11346;50.150;8.150;2023-04-19T02:16:50;14.97;;;8.63;;
22357;SDS011;11346;50.150;8.150;2023-04-19T02:19:17;14.07;;;9.03;;
22357;SDS011;11346;50.150;8.150;2023-04-19T02:21:44;15.53;;;8.47;;
22357;SDS011;11346;50.150;8.150;2023-04-19T02:24:11;13.07;;;7.33;;
22357;SDS011;11346;50.150;8.150;2023-04-19T02:26:38;13.33;;;8.80;;
22357;SDS011;11346;50.150;8.150;2023-04-19T02:29:06;12.53;;;8.27;;
22357;SDS011;11346;50.150;8.150;2023-04-19T02:31:35;13.80;;;8.40;;
22357;SDS011;11346;50.150;8.150;2023-04-19T02:34:02;12.23;;;8.93;;
22357;SDS011;11346;50.150;8.150;2023-04-19T02:36:32;12.73;;;8.40;;
22357;SDS011;11346;50.150;8.150;2023-04-19T02:39:00;13.77;;;8.67;;
22357;SDS011;11346;50.150;8.150;2023-04-19T02:41:27;13.90;;;8.20;;
22357;SDS011;11346;50.150;8.150;2023-04-19T02:43:54;11.27;;;8.20;;
22357;SDS011;11346;50.150;8.150;2023-04-19T02:46:21;12.33;;;8.53;;
22357;SDS011;11346;50.150;8.150;2023-04-19T02:48:52;11.70;;;8.27;;
22357;SDS011;11346;50.150;8.150;2023-04-19T02:51:21;12.20;;;8.30;;
22357;SDS011;11346;50.150;8.150;2023-04-19T02:53:48;12.50;;;8.97;;
22357;SDS011;11346;50.150;8.150;2023-04-19T02:56:15;12.03;;;8.30;;
22357;SDS011;11346;50.150;8.150;2023-04-19T02:58:42;12.37;;;8.00;;
22357;SDS011;11346;50.150;8.150;2023-04-19T03:01:12;14.30;;;8.97;;
22357;SDS011;11346;50.150;8.150;2023-04-19T03:03:39;13.93;;;9.37;;
22357;SDS011;11346;50.150;8.150;2023-04-19T03:06:08;15.60;;;9.40;;
22357;SDS011;11346;50.150;8.150;2023-04-19T03:08:35;13.70;;;9.50;;
22357;SDS011;11346;50.150;8.150;2023-04-19T03:11:02;14.37;;;9.50;;
22357;SDS011;11346;50.150;8.150;2023-04-19T03:13:29;13.57;;;9.47;;
22357;SDS011;11346;50.150;8.150;2023-04-19T03:15:56;16.00;;;9.60;;
22357;SDS011;11346;50.150;8.150;2023-04-19T03:18:23;15.33;;;9.20;;
22357;SDS011;11346;50.150;8.150;2023-04-19T03:20:53;16.03;;;10.07;;
22357;SDS011;11346;50.150;8.150;2023-04-19T03:23:22;19.03;;;10.27;;
22357;SDS011;11346;50.150;8.150;2023-04-19T03:25:49;17.30;;;9.67;;
22357;SDS011;11346;50.150;8.150;2023-04-19T03:28:19;16.33;;;9.97;;
22357;SDS011;11346;50.150;8.150;2023-04-19T03:30:46;16.50;;;10.10;;
22357;SDS011;11346;50.150;8.150;2023-04-19T03:33:13;18.03;;;11.23;;
22357;SDS011;11346;50.150;8.150;2023-04-19T03:35:42;18.50;;;11.73;;
22357;SDS011;11346;50.150;8.150;2023-04-19T03:38:09;16.00;;;10.83;;
22357;SDS011;11346;50.150;8.150;2023-04-19T03:43:25;19.53;;;10.73;;
22357;SDS011;11346;50.150;8.150;2023-04-19T03:45:59;16.57;;;10.80;;
22357;SDS011;11346;50.150;8.150;2023-04-19T03:48:35;16.47;;;10.27;;
22357;SDS011;11346;50.150;8.150;2023-04-19T03:51:06;15.63;;;10.30;;
22357;SDS011;11346;50.150;8.150;2023-04-19T03:53:37;16.13;;;10.20;;
22357;SDS011;11346;50.150;8.150;2023-04-19T03:56:05;17.00;;;10.13;;
22357;SDS011;11346;50.150;8.150;2023-04-19T03:58:33;15.27;;;10.43;;
22357;SDS011;11346;50.150;8.150;2023-04-19T04:01:01;17.30;;;10.40;;
22357;SDS011;11346;50.150;8.150;2023-04-19T04:03:29;17.43;;;10.97;;
22357;SDS011;11346;50.150;8.150;2023-04-19T04:05:56;19.43;;;11.17;;
22357;SDS011;11346;50.150;8.150;2023-04-19T04:08:24;16.20;;;10.83;;
22357;SDS011;11346;50.150;8.150;2023-04-19T04:10:53;17.17;;;10.17;;
22357;SDS011;11346;50.150;8.150;2023-04-19T04:13:23;17.50;;;10.77;;
22357;SDS011;11346;50.150;8.150;2023-04-19T04:15:52;18.53;;;10.93;;
22357;SDS011;11346;50.150;8.150;2023-04-19T04:18:24;17.60;;;11.37;;
22357;SDS011;11346;50.150;8.150;2023-04-19T04:21:00;17.27;;;10.30;;
22357;SDS011;11346;50.150;8.150;2023-04-19T04:35:53;21.30;;;10.73;;
22357;SDS011;11346;50.150;8.150;2023-04-19T04:38:20;15.73;;;10.10;;
22357;SDS011;11346;50.150;8.150;2023-04-19T04:40:50;15.17;;;10.03;;
22357;SDS011;11346;50.150;8.150;2023-04-19T04:43:18;17.53;;;10.83;;
22357;SDS011;11346;50.150;8.150;2023-04-19T04:45:46;18.20;;;10.07;;
22357;SDS011;11346;50.150;8.150;2023-04-19T04:48:13;18.27;;;10.50;;
22357;SDS011;11346;50.150;8.150;2023-04-19T04:50:40;18.77;;;11.50;;
22357;SDS011;11346;50.150;8.150;2023-04-19T04:53:09;18.63;;;10.93;;
22357;SDS011;11346;50.150;8.150;2023-04-19T04:55:37;16.27;;;10.73;;
22357;SDS011;11346;50.150;8.150;2023-04-19T04:58:04;17.67;;;11.53;;
22357;SDS011;11346;50.150;8.150;2023-04-19T05:00:31;17.50;;;10.87;;
22357;SDS011;11346;50.150;8.150;2023-04-19T05:02:58;16.07;;;11.17;;
22357;SDS011;11346;50.150;8.150;2023-04-19T05:05:27;18.50;;;11.10;;
22357;SDS011;11346;50.150;8.150;2023-04-19T05:07:54;17.60;;;11.57;;
22357;SDS011;11346;50.150;8.150;2023-04-19T05:10:23;17.90;;;11.63;;
22357;SDS011;11346;50.150;8.150;2023-04-19T05:12:50;13.93;;;10.00;;
22357;SDS011;11346;50.150;8.150;2023-04-19T05:15:17;17.83;;;11.13;;
22357;SDS011;11346;50.150;8.150;2023-04-19T05:17:44;15.20;;;10.77;;
22357;SDS011;11346;50.150;8.150;2023-04-19T05:20:11;15.97;;;11.13;;
22357;SDS011;11346;50.150;8.150;2023-04-19T05:22:38;20.80;;;11.67;;
22357;SDS011;11346;50.150;8.150;2023-04-19T05:25:05;20.67;;;11.30;;
22357;SDS011;11346;50.150;8.150;2023-04-19T05:27:35;18.10;;;11.17;;
22357;SDS011;11346;50.150;8.150;2023-04-19T05:30:02;20.40;;;12.07;;
22357;SDS011;11346;50.150;8.150;2023-04-19T05:32:30;19.23;;;12.13;;
22357;SDS011;11346;50.150;8.150;2023-04-19T05:34:57;20.20;;;11.10;;
22357;SDS011;11346;50.150;8.150;2023-04-19T05:37:24;16.80;;;11.30;;
22357;SDS011;11346;50.150;8.150;2023-04-19T05:39:51;16.27;;;10.37;;
22357;SDS011;11346;50.150;8.150;2023-04-19T05:42:18;18.80;;;11.40;;
22357;SDS011;11346;50.150;8.150;2023-04-19T05:44:46;18.33;;;11.13;;
22357;SDS011;11346;50.150;8.150;2023-04-19T05:47:13;16.83;;;11.83;;
22357;SDS011;11346;50.150;8.150;2023-04-19T05:49:41;18.57;;;11.37;;
22357;SDS011;11346;50.150;8.150;2023-04-19T05:52:08;18.23;;;11.50;;
22357;SDS011;11346;50.150;8.150;2023-04-19T05:54:35;16.87;;;10.93;;
22357;SDS011;11346;50.150;8.150;2023-04-19T05:57:02;18.37;;;11.10;;
22357;SDS011;11346;50.150;8.150;2023-04-19T05:59:30;17.50;;;10.43;;
22357;SDS011;11346;50.150;8.150;2023-04-19T06:01:58;18.97;;;11.50;;
22357;SDS011;11346;50.150;8.150;2023-04-19T06:04:25;16.33;;;11.20;;
22357;SDS011;11346;50.150;8.150;2023-04-19T06:06:52;17.90;;;10.17;;
22357;SDS011;11346;50.150;8.150;2023-04-19T06:09:19;18.00;;;10.80;;
22357;SDS011;11346;50.150;8.150;2023-04-19T06:11:46;16.07;;;10.73;;
22357;SDS011;11346;50.150;8.150;2023-04-19T06:14:13;16.23;;;10.50;;
22357;SDS011;11346;50.150;8.150;2023-04-19T06:16:40;16.70;;;10.50;;
22357;SDS011;11346;50.150;8.150;2023-04-19T06:19:09;14.13;;;10.13;;
22357;SDS011;11346;50.150;8.150;2023-04-19T06:21:36;16.10;;;10.40;;
22357;SDS011;11346;50.150;8.150;2023-04-19T06:24:04;15.63;;;10.40;;
22357;SDS011;11346;50.150;8.150;2023-04-19T06:26:31;15.17;;;9.77;;
22357;SDS011;11346;50.150;8.150;2023-04-19T06:28:58;16.83;;;9.67;;
22357;SDS011;11346;50.150;8.150;2023-04-19T06:31:25;15.90;;;9.50;;
22357;SDS011;11346;50.150;8.150;2023-04-19T06:33:52;16.13;;;9.40;;
22357;SDS011;11346;50.150;8.150;2023-04-19T06:36:21;15.73;;;9.47;;
22357;SDS011;11346;50.150;8.150;2023-04-19T06:38:48;14.53;;;9.80;;
22357;SDS011;11346;50.150;8.150;2023-04-19T06:41:15;17.13;;;9.50;;
22357;SDS011;11346;50.150;8.150;2023-04-19T06:43:42;15.00;;;9.53;;
22357;SDS011;11346;50.150;8.150;2023-04-19T06:46:09;15.07;;;9.20;;
22357;SDS011;11346;50.150;8.150;2023-04-19T06:48:37;16.00;;;9.73;;
22357;SDS011;11346;50.150;8.150;2023-04-19T06:51:04;13.13;;;8.57;;
22357;SDS011;11346;50.150;8.150;2023-04-19T06:53:33;12.87;;;8.10;;
22357;SDS011;11346;50.150;8.150;2023-04-19T06:56:01;14.90;;;7.50;;
22357;SDS011;11346;50.150;8.150;2023-04-19T06:58:29;10.97;;;7.57;;
22357;SDS011;11346;50.150;8.150;2023-04-19T07:00:57;12.10;;;7.47;;
22357;SDS011;11346;50.150;8.150;2023-04-19T07:03:24;11.27;;;7.27;;
22357;SDS011;11346;50.150;8.150;2023-04-19T07:05:51;10.57;;;7.00;;
22357;SDS011;11346;50.150;8.150;2023-04-19T07:08:20;10.67;;;6.77;;
22357;SDS011;11346;50.150;8.150;2023-04-19T07:10:48;10.93;;;7.30;;
22357;SDS011;11346;50.150;8.150;2023-04-19T07:13:15;13.00;;;7.07;;
22357;SDS011;11346;50.150;8.150;2023-04-19T07:15:42;9.90;;;7.63;;
22357;SDS011;11346;50.150;8.150;2023-04-19T07:18:10;8.53;;;6.53;;
22357;SDS011;11346;50.150;8.150;2023-04-19T07:20:40;8.43;;;6.30;;
22357;SDS011;11346;50.150;8.150;2023-04-19T07:23:09;9.57;;;6.13;;
22357;SDS011;11346;50.150;8.150;2023-04-19T07:25:36;11.83;;;6.40;;
22357;SDS011;11346;50.150;8.150;2023-04-19T07:28:04;7.53;;;5.43;;
22357;SDS011;11346;50.150;8.150;2023-04-19T07:30:31;10.80;;;6.37;;
22357;SDS011;11346;50.150;8.150;2023-04-19T07:32:58;10.37;;;5.63;;
22357;SDS011;11346;50.150;8.150;2023-04-19T07:35:28;6.97;;;5.37;;
22357;SDS011;11346;50.150;8.150;2023-04-19T07:37:55;10.03;;;5.50;;
22357;SDS011;11346;50.150;8.150;2023-04-19T07:40:22;6.90;;;5.30;;
22357;SDS011;11346;50.150;8.150;2023-04-19T07:42:49;7.93;;;5.53;;
22357;SDS011;11346;50.150;8.150;2023-04-19T07:45:17;8.23;;;5.50;;
22357;SDS011;11346;50.150;8.150;2023-04-19T07:47:44;7.03;;;5.70;;
22357;SDS011;11346;50.150;8.150;2023-04-19T07:50:11;7.67;;;4.77;;
22357;SDS011;11346;50.150;8.150;2023-04-19T07:52:39;8.30;;;5.40;;
22357;SDS011;11346;50.150;8.150;2023-04-19T07:55:06;9.20;;;5.17;;
22357;SDS011;11346;50.150;8.150;2023-04-19T07:57:33;6.43;;;4.90;;
22357;SDS011;11346;50.150;8.150;2023-04-19T08:00:00;9.43;;;5.40;;
22357;SDS011;11346;50.150;8.150;2023-04-19T08:02:30;7.17;;;4.90;;
22357;SDS011;11346;50.150;8.150;2023-04-19T08:04:57;7.10;;;4.80;;
22357;SDS011;11346;50.150;8.150;2023-04-19T08:07:26;7.10;;;5.13;;
22357;SDS011;11346;50.150;8.150;2023-04-19T08:09:53;7.03;;;4.90;;
22357;SDS011;11346;50.150;8.150;2023-04-19T08:12:20;8.60;;;5.00;;
22357;SDS011;11346;50.150;8.150;2023-04-19T08:14:47;8.07;;;5.47;;
22357;SDS011;11346;50.150;8.150;2023-04-19T08:17:15;6.27;;;5.00;;
22357;SDS011;11346;50.150;8.150;2023-04-19T08:19:46;7.17;;;5.20;;
22357;SDS011;11346;50.150;8.150;2023-04-19T08:22:14;7.20;;;4.87;;
22357;SDS011;11346;50.150;8.150;2023-04-19T08:24:42;5.80;;;4.63;;
22357;SDS011;11346;50.150;8.150;2023-04-19T08:27:09;6.97;;;5.03;;
22357;SDS011;11346;50.150;8.150;2023-04-19T08:29:36;6.50;;;5.37;;
22357;SDS011;11346;50.150;8.150;2023-04-19T08:32:04;8.03;;;5.60;;
22357;SDS011;11346;50.150;8.150;2023-04-19T08:34:33;6.93;;;5.40;;
22357;SDS011;11346;50.150;8.150;2023-04-19T08:37:01;7.63;;;5.10;;
22357;SDS011;11346;50.150;8.150;2023-04-19T08:39:28;6.47;;;4.63;;
22357;SDS011;11346;50.150;8.150;2023-04-19T08:41:55;7.23;;;4.63;;
22357;SDS011;11346;50.150;8.150;2023-04-19T08:44:22;6.07;;;4.57;;
22357;SDS011;11346;50.150;8.150;2023-04-19T08:46:50;7.17;;;4.73;;
22357;SDS011;11346;50.150;8.150;2023-04-19T08:49:17;5.33;;;4.50;;
22357;SDS011;11346;50.150;8.150;2023-04-19T08:51:45;7.93;;;4.53;;
22357;SDS011;11346;50.150;8.150;2023-04-19T08:54:14;6.73;;;4.50;;
22357;SDS011;11346;50.150;8.150;2023-04-19T08:56:41;5.33;;;4.47;;
22357;SDS011;11346;50.150;8.150;2023-04-19T08:59:08;7.87;;;4.30;;
22357;SDS011;11346;50.150;8.150;2023-04-19T09:01:37;5.73;;;4.20;;
22357;SDS011;11346;50.150;8.150;2023-04-19T09:04:04;7.47;;;4.80;;
22357;SDS011;11346;50.150;8.150;2023-04-19T09:06:34;4.80;;;4.13;;
22357;SDS011;11346;50.150;8.150;2023-04-19T09:09:12;5.53;;;4.20;;
22357;SDS011;11346;50.150;8.150;2023-04-19T09:11:41;6.10;;;3.97;;
22357;SDS011;11346;50.150;8.150;2023-04-19T09:14:08;5.47;;;4.00;;
22357;SDS011;11346;50.150;8.150;2023-04-19T09:16:35;5.13;;;4.10;;
22357;SDS011;11346;50.150;8.150;2023-04-19T09:19:03;5.67;;;4.10;;
22357;SDS011;11346;50.150;8.150;2023-04-19T09:21:30;5.80;;;3.87;;
22357;SDS011;11346;50.150;8.150;2023-04-19T09:23:58;5.33;;;4.37;;
22357;SDS011;11346;50.150;8.150;2023-04-19T09:26:25;5.30;;;4.30;;
22357;SDS011;11346;50.150;8.150;2023-04-19T09:28:58;8.53;;;4.27;;
22357;SDS011;11346;50.150;8.150;2023-04-19T09:31:26;5.87;;;3.90;;
22357;SDS011;11346;50.150;8.150;2023-04-19T09:33:54;6.27;;;4.40;;
22357;SDS011;11346;50.150;8.150;2023-04-19T09:36:27;5.83;;;4.50;;
22357;SDS011;11346;50.150;8.150;2023-04-19T09:38:54;6.57;;;4.67;;
22357;SDS011;11346;50.150;8.150;2023-04-19T09:41:21;6.67;;;4.40;;
22357;SDS011;11346;50.150;8.150;2023-04-19T09:43:48;5.80;;;4.60;;
22357;SDS011;11346;50.150;8.150;2023-04-19T09:46:30;6.47;;;4.37;;
22357;SDS011;11346;50.150;8.150;2023-04-19T09:51:39;5.47;;;4.10;;
22357;SDS011;11346;50.150;8.150;2023-04-19T09:54:06;6.20;;;4.20;;
22357;SDS011;11346;50.150;8.150;2023-04-19T09:56:34;5.57;;;4.30;;
22357;SDS011;11346;50.150;8.150;2023-04-19T09:59:02;6.93;;;4.80;;
22357;SDS011;11346;50.150;8.150;2023-04-19T10:01:31;10.13;;;4.70;;
22357;SDS011;11346;50.150;8.150;2023-04-19T10:04:00;7.13;;;4.80;;
22357;SDS011;11346;50.150;8.150;2023-04-19T10:06:30;7.27;;;4.60;;
22357;SDS011;11346;50.150;8.150;2023-04-19T10:08:58;8.47;;;4.17;;
22357;SDS011;11346;50.150;8.150;2023-04-19T10:11:27;6.70;;;4.60;;
22357;SDS011;11346;50.150;8.150;2023-04-19T10:13:57;9.10;;;4.87;;
22357;SDS011;11346;50.150;8.150;2023-04-19T10:16:25;7.03;;;4.80;;
22357;SDS011;11346;50.150;8.150;2023-04-19T10:18:54;5.67;;;4.60;;
22357;SDS011;11346;50.150;8.150;2023-04-19T10:21:22;7.03;;;4.60;;
22357;SDS011;11346;50.150;8.150;2023-04-19T10:23:49;6.30;;;4.30;;
22357;SDS011;11346;50.150;8.150;2023-04-19T10:26:16;5.13;;;4.13;;
22357;SDS011;11346;50.150;8.150;2023-04-19T10:28:43;5.70;;;4.40;;
22357;SDS011;11346;50.150;8.150;2023-04-19T10:31:11;6.07;;;4.73;;
22357;SDS011;11346;50.150;8.150;2023-04-19T10:33:38;7.77;;;4.77;;
22357;SDS011;11346;50.150;8.150;2023-04-19T10:36:08;7.20;;;4.87;;
22357;SDS011;11346;50.150;8.150;2023-04-19T10:38:36;7.10;;;4.77;;
22357;SDS011;11346;50.150;8.150;2023-04-19T10:41:07;5.60;;;4.60;;
22357;SDS011;11346;50.150;8.150;2023-04-19T10:43:38;5.80;;;4.93;;
22357;SDS011;11346;50.150;8.150;2023-04-19T10:46:08;11.97;;;4.40;;
22357;SDS011;11346;50.150;8.150;2023-04-19T10:48:37;7.17;;;4.80;;
22357;SDS011;11346;50.150;8.150;2023-04-19T10:51:11;7.83;;;4.83;;
22357;SDS011;11346;50.150;8.150;2023-04-19T10:53:46;8.17;;;5.00;;
22357;SDS011;11346;50.150;8.150;2023-04-19T10:56:13;4.87;;;4.13;;
22357;SDS011;11346;50.150;8.150;2023-04-19T11:01:32;7.63;;;4.20;;
22357;SDS011;11346;50.150;8.150;2023-04-19T11:04:01;6.50;;;4.30;;
22357;SDS011;11346;50.150;8.150;2023-04-19T11:06:29;5.03;;;4.50;;
22357;SDS011;11346;50.150;8.150;2023-04-19T11:08:56;5.07;;;4.30;;
22357;SDS011;11346;50.150;8.150;2023-04-19T11:11:24;7.20;;;4.20;;
22357;SDS011;11346;50.150;8.150;2023-04-19T11:13:52;5.43;;;4.40;;
22357;SDS011;11346;50.150;8.150;2023-04-19T11:16:19;10.27;;;4.50;;
22357;SDS011;11346;50.150;8.150;2023-04-19T11:18:46;7.40;;;4.47;;
22357;SDS011;11346;50.150;8.150;2023-04-19T11:21:13;5.80;;;4.10;;
22357;SDS011;11346;50.150;8.150;2023-04-19T11:23:42;5.83;;;3.97;;
22357;SDS011;11346;50.150;8.150;2023-04-19T11:26:11;6.10;;;3.80;;
22357;SDS011;11346;50.150;8.150;2023-04-19T11:28:38;6.13;;;4.40;;
22357;SDS011;11346;50.150;8.150;2023-04-19T11:31:06;5.80;;;4.53;;
22357;SDS011;11346;50.150;8.150;2023-04-19T11:33:33;5.90;;;4.10;;
22357;SDS011;11346;50.150;8.150;2023-04-19T11:36:00;4.73;;;4.23;;
22357;SDS011;11346;50.150;8.150;2023-04-19T11:38:27;6.77;;;4.63;;
22357;SDS011;11346;50.150;8.150;2023-04-19T11:40:58;5.93;;;4.40;;
22357;SDS011;11346;50.150;8.150;2023-04-19T11:43:30;5.50;;;4.60;;
22357;SDS011;11346;50.150;8.150;2023-04-19T11:46:03;6.43;;;4.60;;
22357;SDS011;11346;50.150;8.150;2023-04-19T11:48:30;7.13;;;4.67;;
22357;SDS011;11346;50.150;8.150;2023-04-19T11:50:58;5.57;;;4.77;;
22357;SDS011;11346;50.150;8.150;2023-04-19T11:53:26;5.60;;;4.43;;
22357;SDS011;11346;50.150;8.150;2023-04-19T11:55:53;5.27;;;4.50;;
22357;SDS011;11346;50.150;8.150;2023-04-19T11:58:24;7.53;;;4.90;;
22357;SDS011;11346;50.150;8.150;2023-04-19T12:00:53;6.63;;;4.83;;
22357;SDS011;11346;50.150;8.150;2023-04-19T12:03:20;7.27;;;4.20;;
22357;SDS011;11346;50.150;8.150;2023-04-19T12:05:51;4.97;;;4.37;;
22357;SDS011;11346;50.150;8.150;2023-04-19T12:08:28;5.50;;;4.20;;
22357;SDS011;11346;50.150;8.150;2023-04-19T12:10:55;4.80;;;4.00;;
22357;SDS011;11346;50.150;8.150;2023-04-19T12:13:24;4.77;;;4.27;;
22357;SDS011;11346;50.150;8.150;2023-04-19T12:15:52;8.23;;;4.53;;
22357;SDS011;11346;50.150;8.150;2023-04-19T12:18:19;4.30;;;3.90;;
22357;SDS011;11346;50.150;8.150;2023-04-19T12:20:46;5.43;;;4.40;;
22357;SDS011;11346;50.150;8.150;2023-04-19T12:23:14;3.93;;;3.43;;
22357;SDS011;11346;50.150;8.150;2023-04-19T12:25:41;4.70;;;4.03;;
22357;SDS011;11346;50.150;8.150;2023-04-19T12:28:14;7.73;;;3.90;;
22357;SDS011;11346;50.150;8.150;2023-04-19T12:30:43;5.57;;;3.70;;
22357;SDS011;11346;50.150;8.150;2023-04-19T12:33:11;4.40;;;4.00;;
22357;SDS011;11346;50.150;8.150;2023-04-19T12:35:38;5.80;;;3.67;;
22357;SDS011;11346;50.150;8.150;2023-04-19T12:38:05;5.93;;;3.80;;
22357;SDS011;11346;50.150;8.150;2023-04-19T12:40:33;5.90;;;3.13;;
22357;SDS011;11346;50.150;8.150;2023-04-19T12:43:02;5.37;;;3.70;;
22357;SDS011;11346;50.150;8.150;2023-04-19T12:45:31;4.57;;;3.50;;
22357;SDS011;11346;50.150;8.150;2023-04-19T12:48:07;2.97;;;2.77;;
22357;SDS011;11346;50.150;8.150;2023-04-19T12:50:36;3.70;;;3.07;;
22357;SDS011;11346;50.150;8.150;2023-04-19T12:53:05;5.10;;;2.73;;
22357;SDS011;11346;50.150;8.150;2023-04-19T12:55:33;7.20;;;3.00;;
22357;SDS011;11346;50.150;8.150;2023-04-19T12:58:03;6.67;;;2.57;;
22357;SDS011;11346;50.150;8.150;2023-04-19T13:00:30;6.43;;;2.97;;
22357;SDS011;11346;50.150;8.150;2023-04-19T13:02:57;4.80;;;3.00;;
22357;SDS011;11346;50.150;8.150;2023-04-19T13:05:29;3.17;;;2.57;;
22357;SDS011;11346;50.150;8.150;2023-04-19T13:07:56;5.60;;;2.77;;
22357;SDS011;11346;50.150;8.150;2023-04-19T13:10:30;3.97;;;2.87;;
22357;SDS011;11346;50.150;8.150;2023-04-19T13:12:57;6.20;;;2.40;;
22357;SDS011;11346;50.150;8.150;2023-04-19T13:15:30;3.80;;;2.60;;
22357;SDS011;11346;50.150;8.150;2023-04-19T13:17:57;3.20;;;2.70;;
22357;SDS011;11346;50.150;8.150;2023-04-19T13:20:25;2.67;;;2.43;;
22357;SDS011;11346;50.150;8.150;2023-04-19T13:23:03;2.60;;;2.40;;
22357;SDS011;11346;50.150;8.150;2023-04-19T13:25:32;4.37;;;2.10;;
22357;SDS011;11346;50.150;8.150;2023-04-19T13:28:00;3.23;;;2.57;;
22357;SDS011;11346;50.150;8.150;2023-04-19T13:30:27;6.07;;;2.50;;
22357;SDS011;11346;50.150;8.150;2023-04-19T13:32:57;3.80;;;2.23;;
22357;SDS011;11346;50.150;8.150;2023-04-19T13:35:25;4.10;;;2.30;;
22357;SDS011;11346;50.150;8.150;2023-04-19T13:37:52;4.33;;;2.53;;
22357;SDS011;11346;50.150;8.150;2023-04-19T13:40:27;2.17;;;2.03;;
22357;SDS011;11346;50.150;8.150;2023-04-19T13:42:54;4.10;;;2.30;;
22357;SDS011;11346;50.150;8.150;2023-04-19T13:45:31;4.00;;;2.10;;
22357;SDS011;11346;50.150;8.150;2023-04-19T13:53:26;6.00;;;2.00;;
22357;SDS011;11346;50.150;8.150;2023-04-19T13:55:55;3.87;;;1.87;;
22357;SDS011;11346;50.150;8.150;2023-04-19T13:58:28;3.17;;;2.20;;
22357;SDS011;11346;50.150;8.150;2023-04-19T14:00:55;5.07;;;2.10;;
22357;SDS011;11346;50.150;8.150;2023-04-19T14:03:22;2.80;;;2.27;;
22357;SDS011;11346;50.150;8.150;2023-04-19T14:05:57;2.60;;;2.10;;
22357;SDS011;11346;50.150;8.150;2023-04-19T14:08:24;4.70;;;2.47;;
22357;SDS011;11346;50.150;8.150;2023-04-19T14:10:59;7.33;;;2.30;;
22357;SDS011;11346;50.150;8.150;2023-04-19T14:13:26;2.60;;;2.10;;
22357;SDS011;11346;50.150;8.150;2023-04-19T14:15:59;3.37;;;2.20;;
22357;SDS011;11346;50.150;8.150;2023-04-19T14:18:26;2.53;;;1.93;;
22357;SDS011;11346;50.150;8.150;2023-04-19T14:20:53;2.40;;;2.20;;
22357;SDS011;11346;50.150;8.150;2023-04-19T14:23:20;2.90;;;2.10;;
22357;SDS011;11346;50.150;8.150;2023-04-19T14:25:47;5.40;;;1.93;;
22357;SDS011;11346;50.150;8.150;2023-04-19T14:28:16;2.47;;;2.00;;
22357;SDS011;11346;50.150;8.150;2023-04-19T14:30:43;3.00;;;1.73;;
22357;SDS011;11346;50.150;8.150;2023-04-19T14:33:10;2.00;;;1.80;;
22357;SDS011;11346;50.150;8.150;2023-04-19T14:35:37;3.40;;;1.67;;
22357;SDS011;11346;50.150;8.150;2023-04-19T14:38:06;2.70;;;1.60;;
22357;SDS011;11346;50.150;8.150;2023-04-19T14:40:34;2.83;;;1.83;;
22357;SDS011;11346;50.150;8.150;2023-04-19T14:43:06;2.73;;;2.00;;
22357;SDS011;11346;50.150;8.150;2023-04-19T14:45:35;4.93;;;1.93;;
22357;SDS011;11346;50.150;8.150;2023-04-19T14:48:02;2.63;;;1.83;;
22357;SDS011;11346;50.150;8.150;2023-04-19T14:50:29;2.10;;;1.80;;
22357;SDS011;11346;50.150;8.150;2023-04-19T14:52:56;4.70;;;2.40;;
22357;SDS011;11346;50.150;8.150;2023-04-19T14:55:23;2.20;;;2.00;;
22357;SDS011;11346;50.150;8.150;2023-04-19T14:57:55;4.37;;;2.00;;
22357;SDS011;11346;50.150;8.150;2023-04-19T15:00:22;3.13;;;1.83;;
22357;SDS011;11346;50.150;8.150;2023-04-19T15:02:53;2.37;;;1.87;;
22357;SDS011;11346;50.150;8.150;2023-04-19T15:05:20;2.03;;;1.80;;
22357;SDS011;11346;50.150;8.150;2023-04-19T15:07:48;3.50;;;1.77;;
22357;SDS011;11346;50.150;8.150;2023-04-19T15:10:15;4.90;;;2.00;;
22357;SDS011;11346;50.150;8.150;2023-04-19T15:12:42;2.00;;;1.90;;